createdAt,value
2023-02-13T00:02:42.287Z,-0.97
2023-02-13T00:05:44.226Z,-1.06
2023-02-13T00:08:45.669Z,-0.91
2023-02-13T00:11:47.112Z,-0.91
2023-02-13T00:14:48.636Z,-0.96
2023-02-13T00:17:50.077Z,-1.02
2023-02-13T00:21:05.846Z,-1.00
2023-02-13T00:24:07.459Z,-1.00
2023-02-13T00:27:09.044Z,-1.00
2023-02-13T00:30:11.212Z,-1.00
2023-02-13T00:33:12.726Z,-1.03
2023-02-13T00:36:17.121Z,-1.06
2023-02-13T00:39:19.690Z,-1.09
2023-02-13T00:42:26.412Z,-1.10
2023-02-13T00:45:28.503Z,-1.13
2023-02-13T00:48:31.963Z,-1.19
2023-02-13T00:51:33.560Z,-1.18
2023-02-13T00:54:35.019Z,-1.18
2023-02-13T00:57:36.536Z,-1.19
2023-02-13T01:00:38.770Z,-1.17
2023-02-13T01:03:41.009Z,-1.22
2023-02-13T01:06:42.624Z,-1.16
2023-02-13T01:09:44.556Z,-1.22
2023-02-13T01:12:46.538Z,-1.28
2023-02-13T01:15:49.048Z,-1.40
2023-02-13T01:18:50.715Z,-1.44
2023-02-13T01:21:52.158Z,-1.45
2023-02-13T01:24:53.692Z,-1.41
2023-02-13T01:27:55.222Z,-1.45
2023-02-13T01:30:58.394Z,-1.41
2023-02-13T01:34:00.326Z,-1.41
2023-02-13T01:37:01.846Z,-1.42
2023-02-13T01:40:04.116Z,-1.40
2023-02-13T01:43:09.756Z,-1.28
2023-02-13T01:46:12.764Z,-1.36
2023-02-13T01:49:23.216Z,-1.29
2023-02-13T01:52:25.896Z,-1.32
2023-02-13T01:55:29.524Z,-1.43
2023-02-13T01:58:34.839Z,-1.45
2023-02-13T02:01:37.242Z,-1.46
2023-02-13T02:04:42.182Z,-1.42
2023-02-13T02:07:50.407Z,-1.40
2023-02-13T02:11:02.973Z,-1.46
2023-02-13T02:14:04.585Z,-1.48
2023-02-13T02:17:08.858Z,-1.49
2023-02-13T02:20:31.669Z,-1.47
2023-02-13T02:23:45.938Z,-1.61
2023-02-13T02:27:06.206Z,-1.60
2023-02-13T02:30:38.798Z,-1.61
2023-02-13T02:33:55.181Z,-1.64
2023-02-13T02:37:11.993Z,-1.66
2023-02-13T02:40:30.221Z,-1.70
2023-02-13T02:43:55.322Z,-1.75
2023-02-13T02:47:30.857Z,-1.74
2023-02-13T02:51:01.827Z,-1.73
2023-02-13T02:54:32.684Z,-1.83
2023-02-13T02:58:16.927Z,-1.83
2023-02-13T03:01:46.126Z,-1.81
2023-02-13T03:05:11.961Z,-1.72
2023-02-13T03:08:14.611Z,-1.73
2023-02-13T03:11:35.090Z,-1.67
2023-02-13T03:14:37.662Z,-1.72
2023-02-13T03:17:57.917Z,-1.66
2023-02-13T03:21:36.534Z,-1.65
2023-02-13T03:25:07.913Z,-1.73
2023-02-13T03:28:38.758Z,-1.77
2023-02-13T03:32:01.657Z,-1.77
2023-02-13T03:35:56.161Z,-1.78
2023-02-13T03:39:03.122Z,-1.75
2023-02-13T03:42:10.979Z,-1.78
2023-02-13T03:45:37.365Z,-1.81
2023-02-13T03:49:04.518Z,-1.81
2023-02-13T03:52:16.348Z,-1.78
2023-02-13T03:55:38.508Z,-1.75
2023-02-13T03:59:04.084Z,-1.80
2023-02-13T04:02:15.868Z,-1.79
2023-02-13T04:05:22.298Z,-1.80
2023-02-13T04:08:23.896Z,-1.79
2023-02-13T04:11:35.991Z,-1.83
2023-02-13T04:14:48.110Z,-1.86
2023-02-13T04:17:55.657Z,-1.87
2023-02-13T04:20:57.375Z,-1.88
2023-02-13T04:23:59.032Z,-1.91
2023-02-13T04:27:00.705Z,-1.94
2023-02-13T04:30:02.240Z,-2.04
2023-02-13T04:33:03.971Z,-2.05
2023-02-13T04:36:05.744Z,-2.02
2023-02-13T04:39:07.278Z,-1.98
2023-02-13T04:42:08.784Z,-2.00
2023-02-13T04:45:10.364Z,-1.97
2023-02-13T04:48:11.822Z,-1.90
2023-02-13T04:51:13.288Z,-1.90
2023-02-13T04:54:14.902Z,-2.00
2023-02-13T04:57:16.408Z,-2.02
2023-02-13T05:00:18.438Z,-2.00
2023-02-13T05:03:19.913Z,-2.05
2023-02-13T05:06:21.357Z,-2.08
2023-02-13T05:09:22.961Z,-2.11
2023-02-13T05:12:24.561Z,-2.20
2023-02-13T05:15:26.803Z,-2.10
2023-02-13T05:18:28.406Z,-2.09
2023-02-13T05:21:48.329Z,-2.15
2023-02-13T05:24:49.850Z,-2.11
2023-02-13T05:27:51.340Z,-2.09
2023-02-13T05:30:53.116Z,-2.14
2023-02-13T05:33:54.747Z,-2.14
2023-02-13T05:36:56.586Z,-2.10
2023-02-13T05:39:58.109Z,-2.10
2023-02-13T05:42:59.553Z,-2.17
2023-02-13T05:46:05.973Z,-2.22
2023-02-13T05:49:09.178Z,-2.28
2023-02-13T05:52:10.784Z,-2.41
2023-02-13T05:55:12.386Z,-2.35
2023-02-13T05:58:14.007Z,-2.37
2023-02-13T06:01:15.589Z,-2.28
2023-02-13T06:04:17.165Z,-2.28
2023-02-13T06:07:18.732Z,-2.32
2023-02-13T06:10:20.264Z,-2.33
2023-02-13T06:13:21.768Z,-2.36
2023-02-13T06:16:23.321Z,-2.38
2023-02-13T06:19:24.859Z,-2.33
2023-02-13T06:22:26.418Z,-2.28
2023-02-13T06:25:28.504Z,-2.35
2023-02-13T06:28:30.119Z,-2.27
2023-02-13T06:31:31.710Z,-2.24
2023-02-13T06:34:33.238Z,-2.24
2023-02-13T06:37:34.931Z,-2.33
2023-02-13T06:40:36.469Z,-2.34
2023-02-13T06:43:39.942Z,-2.27
2023-02-13T06:46:43.522Z,-2.21
2023-02-13T06:49:45.152Z,-2.13
2023-02-13T06:52:51.192Z,-2.07
2023-02-13T06:55:53.544Z,-2.02
2023-02-13T06:58:55.049Z,-2.05
2023-02-13T07:01:56.508Z,-2.01
2023-02-13T07:04:58.052Z,-2.02
2023-02-13T07:07:59.560Z,-1.98
2023-02-13T07:11:01.096Z,-1.99
2023-02-13T07:14:02.683Z,-1.94
2023-02-13T07:17:04.273Z,-1.91
2023-02-13T07:20:06.752Z,-1.92
2023-02-13T07:23:08.275Z,-1.77
2023-02-13T07:26:11.144Z,-1.63
2023-02-13T07:29:12.692Z,-1.55
2023-02-13T07:32:14.631Z,-1.42
2023-02-13T07:35:16.191Z,-1.34
2023-02-13T07:38:18.816Z,-1.25
2023-02-13T07:41:20.783Z,-1.08
2023-02-13T07:44:22.291Z,-0.98
2023-02-13T07:47:23.768Z,-0.80
2023-02-13T07:50:25.629Z,-0.69
2023-02-13T07:53:27.149Z,-0.56
2023-02-13T07:56:28.724Z,-0.46
2023-02-13T07:59:30.232Z,-0.33
2023-02-13T08:02:31.766Z,-0.15
2023-02-13T08:05:33.848Z,-0.08
2023-02-13T08:08:35.902Z,0.10
2023-02-13T08:11:55.449Z,0.22
2023-02-13T08:14:56.946Z,0.36
2023-02-13T08:17:58.467Z,0.49
2023-02-13T08:21:02.967Z,0.64
2023-02-13T08:24:05.233Z,0.72
2023-02-13T08:27:06.692Z,0.85
2023-02-13T08:30:10.203Z,0.97
2023-02-13T08:33:11.728Z,1.09
2023-02-13T08:36:13.242Z,1.31
2023-02-13T08:39:14.766Z,1.50
2023-02-13T08:42:16.538Z,1.64
2023-02-13T08:45:18.159Z,1.73
2023-02-13T08:48:19.601Z,1.88
2023-02-13T08:51:21.288Z,2.06
2023-02-13T08:54:22.856Z,2.20
2023-02-13T08:57:24.414Z,2.35
2023-02-13T09:00:25.834Z,2.52
2023-02-13T09:03:27.363Z,2.69
2023-02-13T09:06:28.995Z,2.78
2023-02-13T09:09:30.557Z,2.84
2023-02-13T09:12:32.104Z,2.95
2023-02-13T09:15:33.934Z,3.03
2023-02-13T09:18:35.597Z,3.12
2023-02-13T09:21:37.103Z,3.24
2023-02-13T09:24:38.680Z,3.36
2023-02-13T09:27:40.271Z,3.55
2023-02-13T09:30:41.850Z,3.68
2023-02-13T09:33:47.941Z,3.81
2023-02-13T09:36:55.480Z,3.90
2023-02-13T09:39:57.171Z,3.96
2023-02-13T09:43:22.839Z,4.04
2023-02-13T09:46:31.094Z,4.12
2023-02-13T09:49:36.994Z,4.18
2023-02-13T09:52:39.582Z,4.20
2023-02-13T09:55:53.689Z,4.35
2023-02-13T09:59:10.141Z,4.43
2023-02-13T10:02:33.499Z,4.53
2023-02-13T10:06:04.850Z,4.61
2023-02-13T10:09:21.437Z,4.72
2023-02-13T10:12:37.834Z,4.84
2023-02-13T10:15:48.658Z,4.94
2023-02-13T10:19:31.853Z,5.05
2023-02-13T10:22:45.698Z,5.19
2023-02-13T10:25:58.061Z,5.30
2023-02-13T10:29:25.659Z,5.36
2023-02-13T10:32:45.381Z,5.54
2023-02-13T10:36:01.135Z,5.66
2023-02-13T10:39:13.425Z,5.73
2023-02-13T10:42:28.385Z,5.76
2023-02-13T10:45:49.649Z,5.79
2023-02-13T10:49:17.409Z,5.84
2023-02-13T10:52:46.780Z,5.91
2023-02-13T10:56:03.459Z,6.01
2023-02-13T10:59:40.093Z,6.10
2023-02-13T11:02:41.596Z,6.15
2023-02-13T11:05:43.339Z,6.29
2023-02-13T11:08:47.600Z,6.36
2023-02-13T11:11:49.349Z,6.46
2023-02-13T11:15:08.066Z,6.51
2023-02-13T11:18:19.556Z,6.55
2023-02-13T11:21:34.314Z,6.62
2023-02-13T11:24:36.968Z,6.59
2023-02-13T11:27:39.840Z,6.68
2023-02-13T11:30:41.316Z,6.77
2023-02-13T11:33:42.802Z,6.77
2023-02-13T11:36:44.249Z,6.83
2023-02-13T11:39:51.221Z,6.90
2023-02-13T11:42:53.001Z,6.98
2023-02-13T11:46:17.576Z,7.03
2023-02-13T11:49:23.090Z,7.17
2023-02-13T11:52:50.765Z,7.32
2023-02-13T11:56:06.684Z,7.37
2023-02-13T11:59:13.842Z,7.45
2023-02-13T12:02:24.141Z,7.45
2023-02-13T12:05:28.282Z,7.50
2023-02-13T12:08:33.034Z,7.52
2023-02-13T12:11:42.327Z,7.60
2023-02-13T12:14:46.250Z,7.79
2023-02-13T12:17:57.012Z,7.92
2023-02-13T12:21:09.841Z,7.94
2023-02-13T12:24:30.178Z,7.84
2023-02-13T12:27:42.925Z,7.90
2023-02-13T12:30:53.681Z,7.83
2023-02-13T12:34:07.134Z,8.05
2023-02-13T12:37:11.849Z,8.24
2023-02-13T12:40:24.687Z,8.28
2023-02-13T12:43:54.974Z,8.24
2023-02-13T12:47:08.340Z,8.33
2023-02-13T12:50:25.027Z,8.34
2023-02-13T12:53:42.665Z,8.26
2023-02-13T12:56:56.274Z,8.42
2023-02-13T13:00:09.664Z,8.56
2023-02-13T13:03:35.560Z,8.62
2023-02-13T13:06:54.218Z,8.66
2023-02-13T13:09:58.609Z,8.79
2023-02-13T13:13:16.629Z,8.77
2023-02-13T13:16:20.869Z,8.77
2023-02-13T13:19:22.333Z,8.81
2023-02-13T13:22:44.168Z,8.90
2023-02-13T13:26:05.235Z,9.00
2023-02-13T13:29:27.403Z,8.97
2023-02-13T13:32:30.899Z,9.02
2023-02-13T13:35:34.278Z,9.13
2023-02-13T13:39:04.540Z,9.22
2023-02-13T13:42:19.481Z,9.24
2023-02-13T13:45:37.725Z,9.38
2023-02-13T13:48:57.346Z,9.49
2023-02-13T13:52:24.800Z,9.59
2023-02-13T13:55:46.541Z,9.44
2023-02-13T13:58:50.605Z,9.34
2023-02-13T14:02:17.692Z,9.30
2023-02-13T14:05:25.185Z,9.37
2023-02-13T14:08:41.823Z,9.38
2023-02-13T14:11:47.177Z,9.39
2023-02-13T14:14:49.197Z,9.45
2023-02-13T14:17:53.113Z,9.40
2023-02-13T14:21:01.149Z,9.40
2023-02-13T14:24:11.841Z,9.40
2023-02-13T14:27:25.376Z,9.36
2023-02-13T14:30:31.184Z,9.50
2023-02-13T14:33:33.502Z,9.64
2023-02-13T14:36:40.860Z,9.80
2023-02-13T14:39:43.430Z,9.88
2023-02-13T14:42:50.114Z,9.81
2023-02-13T14:46:06.742Z,9.76
2023-02-13T14:49:17.816Z,9.99
2023-02-13T14:52:26.398Z,10.23
2023-02-13T14:55:45.754Z,10.58
2023-02-13T14:59:06.966Z,10.57
2023-02-13T15:02:23.697Z,10.44
2023-02-13T15:05:32.894Z,10.26
2023-02-13T15:08:46.082Z,10.15
2023-02-13T15:11:47.773Z,9.92
2023-02-13T15:14:49.291Z,9.73
2023-02-13T15:17:59.284Z,9.70
2023-02-13T15:21:01.586Z,9.53
2023-02-13T15:24:03.780Z,9.41
2023-02-13T15:27:07.303Z,9.20
2023-02-13T15:30:23.943Z,9.21
2023-02-13T15:33:47.453Z,9.31
2023-02-13T15:36:49.256Z,9.38
2023-02-13T15:39:50.740Z,9.97
2023-02-13T15:42:53.140Z,10.31
2023-02-13T15:45:57.458Z,10.37
2023-02-13T15:49:13.859Z,9.86
2023-02-13T15:52:18.910Z,9.29
2023-02-13T15:55:30.115Z,8.83
2023-02-13T15:58:34.186Z,8.48
2023-02-13T16:01:36.017Z,8.27
2023-02-13T16:04:37.875Z,8.12
2023-02-13T16:07:51.295Z,7.93
2023-02-13T16:11:27.808Z,7.74
2023-02-13T16:14:31.883Z,7.51
2023-02-13T16:17:36.625Z,7.41
2023-02-13T16:20:38.926Z,7.26
2023-02-13T16:23:40.663Z,7.15
2023-02-13T16:26:44.133Z,7.00
2023-02-13T16:29:54.682Z,6.85
2023-02-13T16:33:29.724Z,6.71
2023-02-13T16:36:31.241Z,6.59
2023-02-13T16:39:33.235Z,6.48
2023-02-13T16:42:34.762Z,6.38
2023-02-13T16:45:36.469Z,6.24
2023-02-13T16:48:38.435Z,5.89
2023-02-13T16:51:44.612Z,5.59
2023-02-13T16:54:50.998Z,5.30
2023-02-13T16:58:02.056Z,5.02
2023-02-13T17:01:05.305Z,4.79
2023-02-13T17:04:22.384Z,4.64
2023-02-13T17:07:29.891Z,4.44
2023-02-13T17:10:34.151Z,4.25
2023-02-13T17:13:35.848Z,4.05
2023-02-13T17:16:37.759Z,3.88
2023-02-13T17:19:39.379Z,3.78
2023-02-13T17:22:43.788Z,3.72
2023-02-13T17:25:47.417Z,3.61
2023-02-13T17:28:49.082Z,3.44
2023-02-13T17:31:54.328Z,3.40
2023-02-13T17:34:56.055Z,3.41
2023-02-13T17:37:57.710Z,3.36
2023-02-13T17:41:00.597Z,3.20
2023-02-13T17:44:02.296Z,3.11
2023-02-13T17:47:03.991Z,3.07
2023-02-13T17:50:10.519Z,2.95
2023-02-13T17:53:27.602Z,2.93
2023-02-13T17:56:29.190Z,2.85
2023-02-13T17:59:30.627Z,2.76
2023-02-13T18:02:33.598Z,2.79
2023-02-13T18:05:35.114Z,2.78
2023-02-13T18:08:36.595Z,2.73
2023-02-13T18:11:38.070Z,2.55
2023-02-13T18:14:39.615Z,2.39
2023-02-13T18:17:41.986Z,2.38
2023-02-13T18:20:44.253Z,2.31
2023-02-13T18:23:45.757Z,2.28
2023-02-13T18:26:47.479Z,2.25
2023-02-13T18:29:49.064Z,2.24
2023-02-13T18:32:53.053Z,2.05
2023-02-13T18:36:01.422Z,2.01
2023-02-13T18:39:03.768Z,2.02
2023-02-13T18:42:05.882Z,1.98
2023-02-13T18:45:07.746Z,2.01
2023-02-13T18:48:09.551Z,1.91
2023-02-13T18:51:11.164Z,1.79
2023-02-13T18:54:13.145Z,1.69
2023-02-13T18:57:15.095Z,1.65
2023-02-13T19:00:17.230Z,1.62
2023-02-13T19:03:18.794Z,1.60
2023-02-13T19:06:23.438Z,1.58
2023-02-13T19:09:24.995Z,1.53
2023-02-13T19:12:26.577Z,1.55
2023-02-13T19:15:28.019Z,1.56
2023-02-13T19:18:29.541Z,1.54
2023-02-13T19:21:32.738Z,1.45
2023-02-13T19:24:34.204Z,1.33
2023-02-13T19:27:37.727Z,1.37
2023-02-13T19:30:39.414Z,1.34
2023-02-13T19:33:41.243Z,1.29
2023-02-13T19:36:42.778Z,1.24
2023-02-13T19:39:44.281Z,1.13
2023-02-13T19:42:45.736Z,1.02
2023-02-13T19:45:47.404Z,1.02
2023-02-13T19:48:49.322Z,1.04
2023-02-13T19:51:50.875Z,1.05
2023-02-13T19:54:54.101Z,0.97
2023-02-13T19:57:55.570Z,0.90
2023-02-13T20:01:08.983Z,0.87
2023-02-13T20:04:11.423Z,0.85
2023-02-13T20:07:13.863Z,0.83
2023-02-13T20:10:15.401Z,0.74
2023-02-13T20:13:16.848Z,0.66
2023-02-13T20:16:18.610Z,0.61
2023-02-13T20:19:20.096Z,0.53
2023-02-13T20:22:21.726Z,0.52
2023-02-13T20:25:23.258Z,0.58
2023-02-13T20:28:24.789Z,0.63
2023-02-13T20:31:27.039Z,0.58
2023-02-13T20:34:31.667Z,0.58
2023-02-13T20:37:39.041Z,0.51
2023-02-13T20:40:40.567Z,0.57
2023-02-13T20:43:42.562Z,0.65
2023-02-13T20:46:44.168Z,0.57
2023-02-13T20:49:45.763Z,0.50
2023-02-13T20:52:47.367Z,0.43
2023-02-13T20:55:49.010Z,0.34
2023-02-13T20:58:53.254Z,0.28
2023-02-13T21:01:54.819Z,0.30
2023-02-13T21:04:56.594Z,0.28
2023-02-13T21:07:58.200Z,0.17
2023-02-13T21:11:04.456Z,0.19
2023-02-13T21:14:06.628Z,0.14
2023-02-13T21:17:09.633Z,0.08
2023-02-13T21:20:11.469Z,0.03
2023-02-13T21:23:12.977Z,0.05
2023-02-13T21:26:16.923Z,0.02
2023-02-13T21:29:19.315Z,-0.05
2023-02-13T21:32:20.978Z,-0.03
2023-02-13T21:35:22.465Z,-0.05
2023-02-13T21:38:24.356Z,-0.01
2023-02-13T21:41:26.215Z,0.04
2023-02-13T21:44:27.753Z,0.01
2023-02-13T21:47:29.301Z,-0.15
2023-02-13T21:50:30.830Z,-0.10
2023-02-13T21:53:32.399Z,-0.10
2023-02-13T21:56:36.764Z,-0.15
2023-02-13T21:59:38.291Z,-0.17
2023-02-13T22:02:39.818Z,-0.16
2023-02-13T22:05:47.899Z,-0.22
2023-02-13T22:08:49.553Z,-0.29
2023-02-13T22:11:52.706Z,-0.25
2023-02-13T22:14:54.445Z,-0.26
2023-02-13T22:17:56.028Z,-0.27
2023-02-13T22:20:58.059Z,-0.38
2023-02-13T22:24:00.254Z,-0.26
2023-02-13T22:27:03.059Z,-0.26
2023-02-13T22:30:06.786Z,-0.26
2023-02-13T22:33:09.011Z,-0.32
2023-02-13T22:36:10.585Z,-0.29
2023-02-13T22:39:12.742Z,-0.25
2023-02-13T22:42:14.437Z,-0.40
2023-02-13T22:45:16.205Z,-0.42
2023-02-13T22:48:17.669Z,-0.38
2023-02-13T22:51:22.556Z,-0.40
2023-02-13T22:54:23.986Z,-0.41
2023-02-13T22:57:25.631Z,-0.46
2023-02-13T23:00:27.109Z,-0.48
2023-02-13T23:03:32.506Z,-0.50
2023-02-13T23:06:34.029Z,-0.53
2023-02-13T23:09:35.485Z,-0.54
2023-02-13T23:12:37.094Z,-0.55
2023-02-13T23:15:38.627Z,-0.54
2023-02-13T23:18:40.432Z,-0.53
2023-02-13T23:21:41.919Z,-0.54
2023-02-13T23:24:43.360Z,-0.54
2023-02-13T23:27:44.868Z,-0.47
2023-02-13T23:30:46.423Z,-0.54
2023-02-13T23:33:47.941Z,-0.62
2023-02-13T23:36:49.566Z,-0.69
2023-02-13T23:39:51.064Z,-0.65
2023-02-13T23:42:52.647Z,-0.56
2023-02-13T23:45:54.138Z,-0.54
2023-02-13T23:48:55.620Z,-0.59
2023-02-13T23:51:57.084Z,-0.62
2023-02-13T23:54:58.615Z,-0.69
2023-02-13T23:58:00.754Z,-0.72
